createdAt,value
2023-03-19T00:00:32.236Z,18.48
2023-03-19T00:02:59.815Z,19.85
2023-03-19T00:05:27.217Z,19.45
2023-03-19T00:07:54.569Z,18.67
2023-03-19T00:10:21.997Z,17.70
2023-03-19T00:12:49.309Z,18.30
2023-03-19T00:15:16.673Z,18.23
2023-03-19T00:17:44.098Z,18.05
2023-03-19T00:20:12.693Z,18.90
2023-03-19T00:22:40.446Z,18.73
2023-03-19T00:25:09.891Z,18.58
2023-03-19T00:27:38.344Z,17.70
2023-03-19T00:30:07.492Z,18.00
2023-03-19T00:32:36.642Z,18.92
2023-03-19T00:35:06.326Z,19.25
2023-03-19T00:37:34.875Z,18.98
2023-03-19T00:40:02.407Z,18.42
2023-03-19T00:42:30.035Z,19.02
2023-03-19T00:44:57.411Z,17.65
2023-03-19T00:47:25.232Z,19.63
2023-03-19T00:49:52.466Z,19.30
2023-03-19T00:52:19.783Z,21.55
2023-03-19T00:54:47.078Z,20.17
2023-03-19T00:57:14.285Z,21.83
2023-03-19T00:59:41.578Z,20.80
2023-03-19T01:02:08.843Z,21.63
2023-03-19T01:04:36.868Z,22.33
2023-03-19T01:07:04.666Z,20.33
2023-03-19T01:09:32.969Z,22.23
2023-03-19T01:12:03.767Z,23.33
2023-03-19T01:14:32.337Z,24.75
2023-03-19T01:17:00.151Z,24.08
2023-03-19T01:19:27.519Z,25.10
2023-03-19T01:21:55.068Z,24.10
2023-03-19T01:24:23.685Z,25.38
2023-03-19T01:26:54.545Z,25.05
2023-03-19T01:29:28.744Z,25.33
2023-03-19T01:31:58.735Z,24.13
2023-03-19T01:34:38.541Z,24.50
2023-03-19T01:37:09.641Z,24.63
2023-03-19T01:39:38.015Z,25.00
2023-03-19T01:42:09.419Z,24.48
2023-03-19T01:44:49.230Z,23.48
2023-03-19T01:47:24.381Z,25.27
2023-03-19T01:50:44.333Z,26.23
2023-03-19T01:53:27.973Z,25.05
2023-03-19T01:56:25.314Z,25.52
2023-03-19T01:59:22.074Z,24.00
2023-03-19T02:02:29.592Z,24.58
2023-03-19T02:05:10.640Z,25.45
2023-03-19T02:07:41.329Z,24.33
2023-03-19T02:10:14.901Z,25.10
2023-03-19T02:12:42.641Z,23.90
2023-03-19T02:15:10.419Z,24.90
2023-03-19T02:17:38.749Z,24.55
2023-03-19T02:20:30.928Z,24.55
2023-03-19T02:23:03.108Z,26.55
2023-03-19T02:25:48.752Z,25.27
2023-03-19T02:28:19.442Z,24.88
2023-03-19T02:30:52.068Z,23.88
2023-03-19T02:33:19.804Z,25.15
2023-03-19T02:35:50.427Z,24.85
2023-03-19T02:38:22.365Z,24.88
2023-03-19T02:41:00.716Z,24.10
2023-03-19T02:43:29.613Z,24.05
2023-03-19T02:45:57.570Z,24.95
2023-03-19T02:48:24.998Z,22.98
2023-03-19T02:50:52.718Z,23.63
2023-03-19T02:53:20.360Z,23.75
2023-03-19T02:55:47.650Z,23.33
2023-03-19T02:58:15.352Z,24.23
2023-03-19T03:00:42.905Z,24.48
2023-03-19T03:03:10.716Z,24.55
2023-03-19T03:05:38.227Z,22.33
2023-03-19T03:08:05.675Z,22.95
2023-03-19T03:10:33.608Z,22.83
2023-03-19T03:13:01.655Z,23.60
2023-03-19T03:15:29.690Z,22.45
2023-03-19T03:17:57.379Z,22.63
2023-03-19T03:20:24.881Z,22.35
2023-03-19T03:22:53.610Z,22.65
2023-03-19T03:25:21.192Z,22.23
2023-03-19T03:27:48.530Z,21.67
2023-03-19T03:30:16.945Z,22.80
2023-03-19T03:32:44.617Z,21.67
2023-03-19T03:35:12.133Z,22.15
2023-03-19T03:37:39.755Z,23.30
2023-03-19T03:40:08.060Z,22.02
2023-03-19T03:42:37.271Z,22.23
2023-03-19T03:45:07.343Z,22.17
2023-03-19T03:47:35.047Z,21.55
2023-03-19T03:50:02.378Z,23.13
2023-03-19T03:52:33.746Z,22.05
2023-03-19T03:55:01.548Z,22.13
2023-03-19T03:57:29.424Z,22.52
2023-03-19T03:59:57.458Z,21.85
2023-03-19T04:02:25.135Z,22.00
2023-03-19T04:04:52.625Z,21.65
2023-03-19T04:07:20.661Z,21.38
2023-03-19T04:09:54.064Z,20.73
2023-03-19T04:12:21.792Z,21.75
2023-03-19T04:14:49.171Z,20.35
2023-03-19T04:17:16.900Z,20.77
2023-03-19T04:19:44.186Z,19.65
2023-03-19T04:22:11.632Z,19.27
2023-03-19T04:24:39.090Z,18.70
2023-03-19T04:27:07.730Z,19.98
2023-03-19T04:29:36.456Z,20.88
2023-03-19T04:32:05.082Z,21.67
2023-03-19T04:34:32.706Z,20.95
2023-03-19T04:37:00.078Z,20.27
2023-03-19T04:39:27.977Z,20.98
2023-03-19T04:41:55.506Z,22.55
2023-03-19T04:44:31.498Z,22.20
2023-03-19T04:47:01.817Z,22.05
2023-03-19T04:49:33.803Z,23.13
2023-03-19T04:52:01.618Z,26.05
2023-03-19T04:54:28.940Z,24.40
2023-03-19T04:56:57.435Z,25.80
2023-03-19T04:59:28.708Z,25.92
2023-03-19T05:01:56.113Z,27.20
2023-03-19T05:04:25.107Z,26.67
2023-03-19T05:06:55.524Z,26.98
2023-03-19T05:09:24.394Z,26.60
2023-03-19T05:11:51.708Z,27.85
2023-03-19T05:14:21.474Z,27.92
2023-03-19T05:17:07.485Z,26.90
2023-03-19T05:19:47.304Z,27.98
2023-03-19T05:22:14.841Z,29.00
2023-03-19T05:24:42.475Z,27.30
2023-03-19T05:27:09.847Z,27.92
2023-03-19T05:29:42.895Z,28.35
2023-03-19T05:32:19.070Z,28.58
2023-03-19T05:34:47.770Z,29.52
2023-03-19T05:37:15.231Z,29.25
2023-03-19T05:39:46.199Z,28.95
2023-03-19T05:42:14.882Z,27.88
2023-03-19T05:44:43.162Z,28.13
2023-03-19T05:47:18.060Z,28.13
2023-03-19T05:49:53.017Z,28.27
2023-03-19T05:52:21.198Z,28.80
2023-03-19T05:54:50.572Z,26.60
2023-03-19T05:57:34.027Z,27.73
2023-03-19T06:00:08.265Z,27.90
2023-03-19T06:02:36.094Z,27.42
2023-03-19T06:05:16.833Z,26.98
2023-03-19T06:07:44.626Z,27.25
2023-03-19T06:10:21.199Z,27.20
2023-03-19T06:12:52.649Z,27.08
2023-03-19T06:15:39.482Z,27.48
2023-03-19T06:18:07.315Z,27.25
2023-03-19T06:20:34.719Z,27.80
2023-03-19T06:23:02.226Z,27.17
2023-03-19T06:25:29.539Z,27.15
2023-03-19T06:27:56.816Z,27.15
2023-03-19T06:30:27.733Z,26.58
2023-03-19T06:32:57.528Z,26.80
2023-03-19T06:35:25.556Z,26.08
2023-03-19T06:37:54.149Z,27.45
2023-03-19T06:40:22.354Z,25.65
2023-03-19T06:42:49.861Z,26.13
2023-03-19T06:45:18.880Z,26.27
2023-03-19T06:47:47.592Z,26.10
2023-03-19T06:50:19.138Z,25.65
2023-03-19T06:52:46.692Z,25.63
2023-03-19T06:55:14.267Z,25.92
2023-03-19T06:57:41.817Z,24.42
2023-03-19T07:00:11.708Z,25.17
2023-03-19T07:02:39.098Z,25.75
2023-03-19T07:05:06.753Z,25.45
2023-03-19T07:07:34.153Z,24.17
2023-03-19T07:10:01.902Z,24.38
2023-03-19T07:12:29.292Z,25.65
2023-03-19T07:14:56.684Z,24.25
2023-03-19T07:17:24.830Z,23.25
2023-03-19T07:19:52.376Z,23.20
2023-03-19T07:22:19.763Z,23.80
2023-03-19T07:24:46.997Z,23.40
2023-03-19T07:27:14.347Z,22.58
2023-03-19T07:29:41.757Z,24.02
2023-03-19T07:32:10.888Z,22.70
2023-03-19T07:34:38.179Z,22.45
2023-03-19T07:37:05.464Z,23.13
2023-03-19T07:39:32.676Z,23.00
2023-03-19T07:41:59.966Z,21.58
2023-03-19T07:44:29.585Z,20.52
2023-03-19T07:46:56.949Z,20.30
2023-03-19T07:49:24.444Z,20.70
2023-03-19T07:51:51.746Z,17.98
2023-03-19T07:54:19.163Z,17.40
2023-03-19T07:56:46.705Z,17.13
2023-03-19T07:59:13.983Z,17.48
2023-03-19T08:01:41.384Z,17.83
2023-03-19T08:04:08.712Z,17.85
2023-03-19T08:06:35.995Z,17.17
2023-03-19T08:09:03.365Z,17.08
2023-03-19T08:11:30.601Z,17.10
2023-03-19T08:13:58.064Z,16.17
2023-03-19T08:16:25.570Z,14.50
2023-03-19T08:18:52.869Z,15.23
2023-03-19T08:21:20.088Z,16.45
2023-03-19T08:23:47.348Z,14.18
2023-03-19T08:26:15.475Z,12.45
2023-03-19T08:28:42.771Z,12.82
2023-03-19T08:31:12.753Z,13.00
2023-03-19T08:33:40.824Z,13.05
2023-03-19T08:36:10.690Z,12.93
2023-03-19T08:38:38.780Z,13.32
2023-03-19T08:41:07.847Z,13.07
2023-03-19T08:43:36.803Z,12.32
2023-03-19T08:46:05.648Z,13.43
2023-03-19T08:48:33.346Z,13.98
2023-03-19T08:51:02.556Z,13.48
2023-03-19T08:53:31.052Z,13.43
2023-03-19T08:56:01.056Z,14.40
2023-03-19T08:58:28.741Z,13.38
2023-03-19T09:01:08.818Z,13.60
2023-03-19T09:03:37.084Z,13.82
2023-03-19T09:06:06.320Z,13.85
2023-03-19T09:08:34.673Z,13.35
2023-03-19T09:11:02.188Z,13.57
2023-03-19T09:13:29.723Z,11.65
2023-03-19T09:15:57.056Z,13.52
2023-03-19T09:18:25.496Z,12.73
2023-03-19T09:20:54.021Z,13.73
2023-03-19T09:23:22.328Z,13.55
2023-03-19T09:25:49.781Z,15.38
2023-03-19T09:28:17.297Z,15.20
2023-03-19T09:30:48.512Z,14.85
2023-03-19T09:33:17.209Z,15.13
2023-03-19T09:35:49.050Z,15.02
2023-03-19T09:38:16.367Z,12.90
2023-03-19T09:40:49.340Z,13.02
2023-03-19T09:43:36.861Z,11.73
2023-03-19T09:46:11.629Z,11.85
2023-03-19T09:48:53.009Z,11.77
2023-03-19T09:51:45.046Z,12.60
2023-03-19T09:54:33.611Z,12.27
2023-03-19T09:57:01.730Z,11.10
2023-03-19T09:59:29.828Z,12.10
2023-03-19T10:02:16.037Z,11.45
2023-03-19T10:05:08.365Z,13.65
2023-03-19T10:07:50.426Z,12.27
2023-03-19T10:10:49.482Z,14.18
2023-03-19T10:13:30.836Z,13.13
2023-03-19T10:16:01.233Z,12.80
2023-03-19T10:18:35.978Z,12.80
2023-03-19T10:21:10.564Z,12.55
2023-03-19T10:23:59.373Z,11.98
2023-03-19T10:26:31.324Z,14.07
2023-03-19T10:29:04.597Z,14.23
2023-03-19T10:31:40.925Z,13.35
2023-03-19T10:34:21.143Z,14.02
2023-03-19T10:36:48.362Z,14.90
2023-03-19T10:39:19.089Z,15.43
2023-03-19T10:41:47.908Z,15.15
2023-03-19T10:44:27.345Z,16.65
2023-03-19T10:46:58.191Z,14.73
2023-03-19T10:49:26.358Z,15.63
2023-03-19T10:51:57.264Z,15.43
2023-03-19T10:54:26.956Z,15.27
2023-03-19T10:57:01.265Z,14.63
2023-03-19T10:59:36.220Z,15.18
2023-03-19T11:02:19.700Z,15.70
2023-03-19T11:04:47.031Z,14.60
2023-03-19T11:07:22.151Z,15.38
2023-03-19T11:09:51.478Z,14.35
2023-03-19T11:12:18.857Z,14.68
2023-03-19T11:14:52.486Z,15.05
2023-03-19T11:17:29.605Z,13.90
2023-03-19T11:19:58.895Z,13.50
2023-03-19T11:22:35.664Z,13.43
2023-03-19T11:25:14.356Z,14.35
2023-03-19T11:27:42.051Z,12.40
2023-03-19T11:30:19.905Z,11.48
2023-03-19T11:33:19.922Z,12.38
2023-03-19T11:36:01.298Z,11.52
2023-03-19T11:38:42.139Z,11.88
2023-03-19T11:41:27.232Z,11.65
2023-03-19T11:44:03.243Z,11.55
2023-03-19T11:46:44.221Z,11.85
2023-03-19T11:49:20.460Z,11.85
2023-03-19T11:51:56.704Z,11.77
2023-03-19T11:55:08.607Z,12.18
2023-03-19T11:57:54.736Z,13.93
2023-03-19T12:00:26.794Z,13.77
2023-03-19T12:03:03.032Z,13.88
2023-03-19T12:05:49.066Z,13.48
2023-03-19T12:08:34.443Z,13.95
2023-03-19T12:11:13.594Z,14.02
2023-03-19T12:14:09.192Z,14.57
2023-03-19T12:16:55.918Z,14.57
2023-03-19T12:19:45.905Z,14.18
2023-03-19T12:22:22.098Z,13.95
2023-03-19T12:27:39.973Z,12.68
2023-03-19T12:30:18.678Z,14.43
2023-03-19T12:32:54.203Z,14.88
2023-03-19T12:35:36.805Z,15.55
2023-03-19T12:38:17.740Z,15.73
2023-03-19T12:41:01.868Z,16.15
2023-03-19T12:43:49.251Z,14.55
2023-03-19T12:46:27.569Z,15.48
2023-03-19T12:49:12.763Z,15.07
2023-03-19T12:51:44.106Z,15.60
2023-03-19T12:54:19.964Z,14.90
2023-03-19T12:57:02.522Z,15.27
2023-03-19T12:59:53.956Z,15.88
2023-03-19T13:02:30.675Z,15.35
2023-03-19T13:05:14.901Z,15.73
2023-03-19T13:08:11.938Z,15.95
2023-03-19T13:13:32.116Z,14.93
2023-03-19T13:16:19.699Z,16.38
2023-03-19T13:18:58.849Z,16.55
2023-03-19T13:21:37.649Z,17.10
2023-03-19T13:24:21.785Z,16.38
2023-03-19T13:26:50.335Z,16.77
2023-03-19T13:29:21.564Z,16.48
2023-03-19T13:31:49.588Z,18.42
2023-03-19T13:34:21.331Z,19.83
2023-03-19T13:37:05.403Z,20.08
2023-03-19T13:39:34.610Z,18.27
2023-03-19T13:42:37.298Z,17.90
2023-03-19T13:45:04.845Z,17.90
2023-03-19T13:47:32.518Z,19.02
2023-03-19T13:50:10.892Z,18.30
2023-03-19T13:52:44.740Z,17.90
2023-03-19T13:55:33.025Z,19.30
2023-03-19T13:58:12.495Z,18.77
2023-03-19T14:00:45.986Z,16.00
2023-03-19T14:03:24.576Z,16.88
2023-03-19T14:05:54.679Z,19.65
2023-03-19T14:08:33.403Z,16.83
2023-03-19T14:11:02.311Z,19.50
2023-03-19T14:13:39.769Z,18.50
2023-03-19T14:16:17.539Z,16.88
2023-03-19T14:18:45.292Z,21.17
2023-03-19T14:21:31.365Z,21.35
2023-03-19T14:24:55.952Z,21.45
2023-03-19T14:27:32.780Z,20.73
2023-03-19T14:30:11.087Z,20.67
2023-03-19T14:32:41.844Z,21.17
2023-03-19T14:35:16.569Z,21.10
2023-03-19T14:37:52.449Z,21.83
2023-03-19T14:40:37.240Z,20.00
2023-03-19T14:43:14.092Z,24.17
2023-03-19T14:45:43.988Z,22.45
2023-03-19T14:48:22.893Z,21.48
2023-03-19T14:51:14.369Z,20.45
2023-03-19T14:53:46.608Z,29.65
2023-03-19T14:56:23.792Z,20.38
2023-03-19T14:58:56.824Z,22.33
2023-03-19T15:01:26.964Z,22.20
2023-03-19T15:03:59.326Z,35.88
2023-03-19T15:06:33.713Z,22.23
2023-03-19T15:09:02.555Z,21.60
2023-03-19T15:11:57.768Z,21.70
2023-03-19T15:14:48.127Z,24.20
2023-03-19T15:17:27.797Z,32.50
2023-03-19T15:19:58.449Z,26.00
2023-03-19T15:22:33.593Z,22.85
2023-03-19T15:25:09.577Z,24.47
2023-03-19T15:27:36.821Z,23.85
2023-03-19T15:30:19.589Z,21.00
2023-03-19T15:32:56.671Z,20.67
2023-03-19T15:35:36.266Z,21.95
2023-03-19T15:38:09.210Z,19.88
2023-03-19T15:40:37.793Z,20.40
2023-03-19T15:43:06.035Z,18.63
2023-03-19T15:45:34.427Z,17.67
2023-03-19T15:48:10.682Z,18.67
2023-03-19T15:50:42.308Z,18.15
2023-03-19T15:53:17.405Z,19.50
2023-03-19T15:58:45.228Z,18.27
2023-03-19T16:01:15.122Z,17.27
2023-03-19T16:04:04.652Z,18.55
2023-03-19T16:06:36.448Z,19.08
2023-03-19T16:09:14.381Z,19.80
2023-03-19T16:11:44.015Z,18.17
2023-03-19T16:14:31.566Z,18.08
2023-03-19T16:17:18.025Z,16.88
2023-03-19T16:19:58.671Z,18.27
2023-03-19T16:22:30.947Z,17.73
2023-03-19T16:24:59.020Z,17.88
2023-03-19T16:27:37.319Z,16.52
2023-03-19T16:30:21.379Z,16.60
2023-03-19T16:33:04.162Z,16.20
2023-03-19T16:35:36.653Z,17.60
2023-03-19T16:38:25.718Z,16.20
2023-03-19T16:41:27.252Z,18.25
2023-03-19T16:43:55.280Z,16.33
2023-03-19T16:46:23.901Z,17.75
2023-03-19T16:48:51.356Z,16.73
2023-03-19T16:51:20.783Z,16.50
2023-03-19T16:53:48.989Z,15.43
2023-03-19T16:56:18.567Z,15.50
2023-03-19T16:58:46.695Z,15.93
2023-03-19T17:01:23.003Z,14.85
2023-03-19T17:03:51.346Z,14.52
2023-03-19T17:06:19.387Z,13.80
2023-03-19T17:08:46.938Z,14.02
2023-03-19T17:11:30.901Z,15.02
2023-03-19T17:13:59.476Z,14.52
2023-03-19T17:16:27.901Z,14.10
2023-03-19T17:18:56.440Z,14.73
2023-03-19T17:21:39.571Z,15.05
2023-03-19T17:24:23.570Z,13.77
2023-03-19T17:26:51.846Z,14.18
2023-03-19T17:29:20.825Z,14.63
2023-03-19T17:31:48.274Z,14.40
2023-03-19T17:34:21.675Z,14.93
2023-03-19T17:36:52.320Z,14.20
2023-03-19T17:39:19.827Z,14.57
2023-03-19T17:41:47.142Z,15.05
2023-03-19T17:44:14.725Z,14.55
2023-03-19T17:46:48.503Z,14.98
2023-03-19T17:49:20.180Z,17.63
2023-03-19T17:51:47.793Z,16.33
2023-03-19T17:54:15.034Z,16.45
2023-03-19T17:56:43.421Z,16.92
2023-03-19T17:59:11.427Z,15.85
2023-03-19T18:01:43.236Z,16.50
2023-03-19T18:04:17.631Z,16.17
2023-03-19T18:06:49.254Z,16.77
2023-03-19T18:09:32.673Z,17.05
2023-03-19T18:12:00.129Z,16.92
2023-03-19T18:14:27.338Z,15.90
2023-03-19T18:16:54.552Z,17.52
2023-03-19T18:19:34.844Z,17.98
2023-03-19T18:22:02.278Z,18.88
2023-03-19T18:24:29.626Z,17.98
2023-03-19T18:26:56.907Z,18.73
2023-03-19T18:29:24.200Z,18.48
2023-03-19T18:31:52.201Z,20.10
2023-03-19T18:34:19.701Z,20.70
2023-03-19T18:36:47.092Z,19.17
2023-03-19T18:39:15.745Z,19.42
2023-03-19T18:41:43.932Z,19.63
2023-03-19T18:44:12.273Z,20.50
2023-03-19T18:46:41.654Z,20.35
2023-03-19T18:49:26.645Z,20.75
2023-03-19T18:52:02.545Z,20.25
2023-03-19T18:54:32.070Z,20.17
2023-03-19T18:57:00.630Z,20.48
2023-03-19T18:59:36.018Z,19.58
2023-03-19T19:02:26.096Z,20.33
2023-03-19T19:04:53.412Z,19.48
2023-03-19T19:07:20.648Z,20.17
2023-03-19T19:09:47.873Z,19.63
2023-03-19T19:12:18.293Z,20.50
2023-03-19T19:14:46.328Z,21.23
2023-03-19T19:17:29.064Z,20.75
2023-03-19T19:19:56.406Z,19.95
2023-03-19T19:22:23.618Z,19.08
2023-03-19T19:24:51.075Z,19.85
2023-03-19T19:27:22.261Z,19.85
2023-03-19T19:29:50.190Z,20.83
2023-03-19T19:32:32.175Z,19.70
2023-03-19T19:34:59.523Z,20.15
2023-03-19T19:37:26.724Z,17.90
2023-03-19T19:39:53.929Z,20.67
2023-03-19T19:42:23.288Z,20.83
2023-03-19T19:44:58.768Z,22.55
2023-03-19T19:47:27.312Z,22.08
2023-03-19T19:49:54.584Z,37.60
2023-03-19T19:52:22.024Z,25.85
2023-03-19T19:54:51.558Z,26.02
2023-03-19T19:57:26.982Z,28.90
2023-03-19T19:59:55.701Z,21.77
2023-03-19T20:02:25.473Z,21.95
2023-03-19T20:04:52.731Z,23.92
2023-03-19T20:07:20.534Z,28.13
2023-03-19T20:09:49.143Z,22.67
2023-03-19T20:12:23.422Z,23.13
2023-03-19T20:14:52.190Z,25.10
2023-03-19T20:17:23.589Z,23.33
2023-03-19T20:19:51.305Z,27.20
2023-03-19T20:22:18.590Z,23.17
2023-03-19T20:24:48.861Z,23.58
2023-03-19T20:27:25.812Z,22.40
2023-03-19T20:29:53.732Z,22.20
2023-03-19T20:32:37.153Z,23.42
2023-03-19T20:35:14.276Z,23.20
2023-03-19T20:37:41.490Z,22.77
2023-03-19T20:40:09.349Z,23.23
2023-03-19T20:42:36.612Z,22.30
2023-03-19T20:45:04.417Z,22.20
2023-03-19T20:47:33.136Z,23.85
2023-03-19T20:50:01.073Z,24.00
2023-03-19T20:52:30.030Z,22.65
2023-03-19T20:54:58.156Z,24.40
2023-03-19T20:57:29.095Z,23.70
2023-03-19T20:59:57.065Z,23.00
2023-03-19T21:02:28.306Z,24.23
2023-03-19T21:04:55.937Z,23.73
2023-03-19T21:07:34.436Z,22.85
2023-03-19T21:10:12.428Z,24.75
2023-03-19T21:12:39.730Z,25.50
2023-03-19T21:15:12.978Z,23.95
2023-03-19T21:17:40.699Z,25.15
2023-03-19T21:20:14.839Z,24.75
2023-03-19T21:22:42.670Z,24.27
2023-03-19T21:25:19.217Z,25.17
2023-03-19T21:27:51.378Z,24.27
2023-03-19T21:30:20.331Z,25.10
2023-03-19T21:32:47.960Z,25.55
2023-03-19T21:35:18.502Z,24.58
2023-03-19T21:37:46.530Z,24.60
2023-03-19T21:40:20.013Z,25.67
2023-03-19T21:42:52.270Z,25.80
2023-03-19T21:45:31.718Z,25.08
2023-03-19T21:48:07.933Z,25.35
2023-03-19T21:53:03.106Z,23.80
2023-03-19T21:55:32.865Z,25.33
2023-03-19T21:58:00.322Z,25.13
2023-03-19T22:00:27.848Z,29.70
2023-03-19T22:02:55.765Z,28.77
2023-03-19T22:05:28.087Z,28.88
2023-03-19T22:07:55.946Z,28.80
2023-03-19T22:10:28.661Z,26.77
2023-03-19T22:12:56.053Z,25.67
2023-03-19T22:15:34.953Z,25.33
2023-03-19T22:18:07.044Z,25.10
2023-03-19T22:20:34.616Z,23.92
2023-03-19T22:23:02.492Z,24.65
2023-03-19T22:25:35.253Z,24.27
2023-03-19T22:28:26.980Z,23.95
2023-03-19T22:30:54.252Z,24.58
2023-03-19T22:33:24.118Z,24.92
2023-03-19T22:35:52.237Z,23.80
2023-03-19T22:38:21.557Z,24.23
2023-03-19T22:40:53.724Z,22.98
2023-03-19T22:43:31.649Z,24.50
2023-03-19T22:46:11.399Z,23.95
2023-03-19T22:48:39.037Z,24.25
2023-03-19T22:51:06.807Z,23.75
2023-03-19T22:53:36.103Z,23.00
2023-03-19T22:56:04.445Z,23.60
2023-03-19T22:58:32.806Z,25.00
2023-03-19T23:01:00.300Z,24.23
2023-03-19T23:03:34.665Z,23.27
2023-03-19T23:06:16.981Z,24.50
2023-03-19T23:08:50.838Z,24.95
2023-03-19T23:11:18.437Z,25.40
2023-03-19T23:13:46.838Z,25.02
2023-03-19T23:16:23.307Z,24.90
2023-03-19T23:18:51.693Z,24.77
2023-03-19T23:21:19.887Z,25.38
2023-03-19T23:23:47.193Z,23.90
2023-03-19T23:26:23.761Z,25.70
2023-03-19T23:28:51.735Z,24.67
2023-03-19T23:31:19.591Z,26.30
2023-03-19T23:33:46.909Z,25.70
2023-03-19T23:36:14.173Z,24.77
2023-03-19T23:38:41.504Z,25.52
2023-03-19T23:41:19.455Z,24.85
2023-03-19T23:43:47.413Z,24.35
2023-03-19T23:46:15.361Z,24.52
2023-03-19T23:48:42.925Z,24.70
2023-03-19T23:51:14.297Z,24.17
2023-03-19T23:53:43.059Z,25.20
2023-03-19T23:56:25.738Z,24.48
2023-03-19T23:58:55.661Z,24.83
